TVS4314 HEGN-ESMS
Flight info
| Callsign | TVS4314 |
|---|---|
| Flight time | N/A |
| Altitude | 40000 |
| Route | BOTIX1B BOTIX V608 NABED T55 TANSA DCT RIGRO UN133 GIKAS UL608 FSK UN128 RUGAS DCT RAXAD DCT TONDO DCT PEPIK DCT HDO M725 KOGIM M44 ARGAD Z400 BAKLI |
| Aircraft | B38M/M-SDE1FGHILORVWXY/HB1 |
Departure
| Time | N/A |
|---|---|
| Airport | Hurghada International Airport (HEGN) |
Arrival
| Time | 2026-05-05 21:55 |
|---|---|
| Airport | Malmö Sturup Airport (ESMS) |
| Time | Latitude | Longitude | Altitude | Speed | Heading |
|---|---|---|---|---|---|
| 2026-05-05 21:49 | 55.30333 | 13.43063 | 3732 ft | 199 kts | 352° |
| 2026-05-05 21:50 | 55.31718 | 13.42621 | 3666 ft | 205 kts | 352° |
| 2026-05-05 21:50 | 55.33131 | 13.42160 | 3564 ft | 206 kts | 352° |
| 2026-05-05 21:50 | 55.34550 | 13.41689 | 3430 ft | 207 kts | 352° |
| 2026-05-05 21:50 | 55.35953 | 13.41241 | 3291 ft | 206 kts | 354° |
| 2026-05-05 21:51 | 55.37376 | 13.40932 | 3120 ft | 206 kts | 356° |
| 2026-05-05 21:51 | 55.38798 | 13.40651 | 2924 ft | 205 kts | 356° |
| 2026-05-05 21:51 | 55.40219 | 13.40362 | 2676 ft | 205 kts | 356° |
| 2026-05-05 21:51 | 55.41633 | 13.40076 | 2440 ft | 204 kts | 355° |
| 2026-05-05 21:52 | 55.44240 | 13.39543 | 1949 ft | 192 kts | 356° |
| 2026-05-05 21:52 | 55.44889 | 13.39412 | 1806 ft | 190 kts | 357° |
| 2026-05-05 21:52 | 55.45149 | 13.39360 | 1757 ft | 189 kts | 357° |
| 2026-05-05 21:53 | 55.46135 | 13.39157 | 1550 ft | 185 kts | 356° |
| 2026-05-05 21:53 | 55.47391 | 13.38896 | 1289 ft | 180 kts | 356° |
| 2026-05-05 21:53 | 55.48579 | 13.38654 | 1058 ft | 162 kts | 355° |
| 2026-05-05 21:53 | 55.49620 | 13.38441 | 821 ft | 139 kts | 354° |
| 2026-05-05 21:54 | 55.50524 | 13.38255 | 646 ft | 125 kts | 353° |
| 2026-05-05 21:54 | 55.51388 | 13.38079 | 471 ft | 124 kts | 353° |
| 2026-05-05 21:54 | 55.52245 | 13.37902 | 292 ft | 123 kts | 353° |
| 2026-05-05 21:54 | 55.53025 | 13.37744 | 243 ft | 92 kts | 354° |
| 2026-05-05 21:55 | 55.53488 | 13.37650 | 241 ft | 59 kts | 353° |
| 2026-05-05 21:55 | 55.53838 | 13.37576 | 242 ft | 48 kts | 353° |
| 2026-05-05 21:55 | 55.54120 | 13.37519 | 243 ft | 36 kts | 353° |
| 2026-05-05 21:55 | 55.54223 | 13.37430 | 240 ft | 15 kts | 271° |
| 2026-05-05 21:56 | 55.54204 | 13.37234 | 235 ft | 14 kts | 238° |
| 2026-05-05 21:56 | 55.54117 | 13.37223 | 236 ft | 15 kts | 173° |
| 2026-05-05 21:56 | 55.54006 | 13.37245 | 237 ft | 15 kts | 182° |
| 2026-05-05 21:56 | 55.53958 | 13.37084 | 234 ft | 18 kts | 263° |
| 2026-05-05 21:57 | 55.53949 | 13.36943 | 237 ft | 6 kts | 263° |
| 2026-05-05 21:57 | 55.53949 | 13.36906 | 237 ft | 4 kts | 285° |
| 2026-05-05 21:57 | 55.53970 | 13.36885 | 235 ft | 3 kts | 356° |
| 2026-05-05 21:57 | 55.53992 | 13.36882 | 233 ft | 4 kts | 354° |
| 2026-05-05 21:58 | 55.54007 | 13.36879 | 237 ft | 2 kts | 353° |
| 2026-05-05 21:58 | 55.54016 | 13.36877 | 237 ft | 1 kts | 353° |
| 2026-05-05 21:58 | 55.54017 | 13.36877 | 237 ft | 0 kts | 353° |